Sylvania, GA

6:04 AM EDT on September 20, 2014 (GMT -0400)
Statesboro-Bulloch County | Change Station
CLOSE
Current Station
Airport
Location: Statesboro,
Elevation: 187 ft
Nearby Weather Stations

Elev 187 ft 32.48 °N, 81.74 °W | Updated 9 minutes ago

Mostly Cloudy
Mostly Cloudy
69 °F
Feels Like 69 °F
N
8
Wind Variable Wind from NE

Today
High -- | Low -- °F
--% Chance of Precip.
Yesterday
High -- | Low -- °F
Precip. -- in
7:13 AM 7:25 PM
Waning Crescent, 13% visible
Pressure 30.05 in
Visibility 10.0 miles
Clouds Overcast 600 ft
Dew Point 69 °F
Humidity 100%
Rainfall 0.00 in
Snow Depth Not available.
UV 0 out of 12
Pollen 8.00 out of 12
Air Quality Not available.
Flu Activity Not available.
METAR KTBR 200955Z AUTO 04007KT 10SM OVC006 21/21 A3005 RMK AO2 T02080208

More Conditions Fewer Conditions

Pressure 30.05 in
Visibility 10.0 miles
Clouds Overcast 600 ft
Dew Point 69 °F
Humidity 100%
Rainfall 0.00 in
Snow Depth Not available.
UV 0 out of 12
Pollen 8.00 out of 12
Air Quality Not available.
Flu Activity Not available.
METAR KTBR 200955Z AUTO 04007KT 10SM OVC006 21/21 A3005 RMK AO2 T02080208

More Conditions Fewer Conditions

10-Day Weather Forecast

Almanac

Astronomy

Sep. 20, 2014 Rise Set
Actual Time 7:13 AM EDT 7:25 PM EDT
Civil Twilight 6:48 AM EDT 7:50 PM EDT
Nautical Twilight 6:20 AM EDT 8:19 PM EDT
Astronomical Twilight 5:50 AM EDT 8:48 PM EDT
Moon 4:00 AM EDT 5:21 PM EDT
Length of Visible Light 13h 01m
Length of Day
12h 12m
Tomorrow will be 1m 59s shorter.
Waning Crescent, 13% of the Moon is Illuminated
Today
Waning Crescent
Sep 24
New
Oct 1
First Quarter
Oct 8
Full
Oct 15
Last Quarter

Today's Extremes

State Highs State Lows

Community

WunderPhotos

Upload Photos

1,754,820 photos uploaded!

WunderBlogs® & News

Nearby

Snow Depth

Station Depth Elevation
No new snow has been reported.

Earthquake Activity

City Distance Mag. Time & Date
New Ellenton, South Carolina 44 miles 2.6 4:38 PM EDT
2014-09-19
Minimum magnitude displayed is 2.5.

Coastal Water Temperatures

Place Temperature
No Stations Reporting

Nearby Weather Stations